sensor_id;sensor_type;location;lat;lon;timestamp;P1;durP1;ratioP1;P2;durP2;ratioP2
30998;SDS011;20549;50.042;8.968;2022-07-29T00:00:02;2.33;;;1.27;;
30998;SDS011;20549;50.042;8.968;2022-07-29T00:02:28;3.25;;;1.50;;
30998;SDS011;20549;50.042;8.968;2022-07-29T00:04:54;3.42;;;1.40;;
30998;SDS011;20549;50.042;8.968;2022-07-29T00:07:21;1.85;;;1.47;;
30998;SDS011;20549;50.042;8.968;2022-07-29T00:09:47;1.95;;;1.75;;
30998;SDS011;20549;50.042;8.968;2022-07-29T00:12:14;1.47;;;1.20;;
30998;SDS011;20549;50.042;8.968;2022-07-29T00:14:41;1.20;;;1.10;;
30998;SDS011;20549;50.042;8.968;2022-07-29T00:17:07;1.60;;;1.40;;
30998;SDS011;20549;50.042;8.968;2022-07-29T00:19:34;2.85;;;1.50;;
30998;SDS011;20549;50.042;8.968;2022-07-29T00:22:00;1.42;;;1.30;;
30998;SDS011;20549;50.042;8.968;2022-07-29T00:24:27;1.47;;;1.37;;
30998;SDS011;20549;50.042;8.968;2022-07-29T00:26:54;1.65;;;1.40;;
30998;SDS011;20549;50.042;8.968;2022-07-29T00:29:20;3.75;;;1.55;;
30998;SDS011;20549;50.042;8.968;2022-07-29T00:31:47;1.70;;;1.32;;
30998;SDS011;20549;50.042;8.968;2022-07-29T00:34:13;6.35;;;1.62;;
30998;SDS011;20549;50.042;8.968;2022-07-29T00:36:58;1.95;;;1.45;;
30998;SDS011;20549;50.042;8.968;2022-07-29T00:39:25;1.47;;;1.37;;
30998;SDS011;20549;50.042;8.968;2022-07-29T00:41:51;4.17;;;1.95;;
30998;SDS011;20549;50.042;8.968;2022-07-29T00:44:18;1.67;;;1.40;;
30998;SDS011;20549;50.042;8.968;2022-07-29T00:46:44;1.50;;;1.40;;
30998;SDS011;20549;50.042;8.968;2022-07-29T00:49:11;2.05;;;1.47;;
30998;SDS011;20549;50.042;8.968;2022-07-29T00:51:38;3.75;;;1.75;;
30998;SDS011;20549;50.042;8.968;2022-07-29T00:54:04;1.62;;;1.35;;
30998;SDS011;20549;50.042;8.968;2022-07-29T00:56:31;1.62;;;1.47;;
30998;SDS011;20549;50.042;8.968;2022-07-29T00:58:58;1.57;;;1.47;;
30998;SDS011;20549;50.042;8.968;2022-07-29T01:01:24;2.67;;;2.40;;
30998;SDS011;20549;50.042;8.968;2022-07-29T01:03:51;2.00;;;1.37;;
30998;SDS011;20549;50.042;8.968;2022-07-29T01:06:17;1.90;;;1.50;;
30998;SDS011;20549;50.042;8.968;2022-07-29T01:08:47;3.30;;;1.52;;
30998;SDS011;20549;50.042;8.968;2022-07-29T01:11:10;2.33;;;1.35;;
30998;SDS011;20549;50.042;8.968;2022-07-29T01:13:37;3.77;;;1.60;;
30998;SDS011;20549;50.042;8.968;2022-07-29T01:16:06;3.90;;;1.60;;
30998;SDS011;20549;50.042;8.968;2022-07-29T01:18:32;3.17;;;1.25;;
30998;SDS011;20549;50.042;8.968;2022-07-29T01:23:59;1.50;;;1.20;;
30998;SDS011;20549;50.042;8.968;2022-07-29T01:29:10;3.58;;;1.42;;
30998;SDS011;20549;50.042;8.968;2022-07-29T01:34:35;2.37;;;1.35;;
30998;SDS011;20549;50.042;8.968;2022-07-29T01:36:55;3.08;;;1.40;;
30998;SDS011;20549;50.042;8.968;2022-07-29T01:39:30;2.27;;;1.27;;
30998;SDS011;20549;50.042;8.968;2022-07-29T01:41:58;2.00;;;1.60;;
30998;SDS011;20549;50.042;8.968;2022-07-29T01:44:27;2.25;;;1.47;;
30998;SDS011;20549;50.042;8.968;2022-07-29T01:46:52;1.62;;;1.50;;
30998;SDS011;20549;50.042;8.968;2022-07-29T01:49:24;1.55;;;1.45;;
30998;SDS011;20549;50.042;8.968;2022-07-29T01:51:56;3.58;;;1.57;;
30998;SDS011;20549;50.042;8.968;2022-07-29T01:54:25;2.55;;;1.62;;
30998;SDS011;20549;50.042;8.968;2022-07-29T01:56:51;1.50;;;1.40;;
30998;SDS011;20549;50.042;8.968;2022-07-29T01:59:17;2.12;;;1.42;;
30998;SDS011;20549;50.042;8.968;2022-07-29T02:01:43;2.22;;;1.62;;
30998;SDS011;20549;50.042;8.968;2022-07-29T02:04:10;2.20;;;1.70;;
30998;SDS011;20549;50.042;8.968;2022-07-29T02:06:37;1.72;;;1.47;;
30998;SDS011;20549;50.042;8.968;2022-07-29T02:09:03;1.55;;;1.45;;
30998;SDS011;20549;50.042;8.968;2022-07-29T02:11:30;2.83;;;1.47;;
30998;SDS011;20549;50.042;8.968;2022-07-29T02:13:56;3.62;;;1.50;;
30998;SDS011;20549;50.042;8.968;2022-07-29T02:16:23;1.72;;;1.37;;
30998;SDS011;20549;50.042;8.968;2022-07-29T02:18:50;1.92;;;1.45;;
30998;SDS011;20549;50.042;8.968;2022-07-29T02:21:18;1.52;;;1.42;;
30998;SDS011;20549;50.042;8.968;2022-07-29T02:23:43;3.05;;;1.55;;
30998;SDS011;20549;50.042;8.968;2022-07-29T02:26:09;1.82;;;1.60;;
30998;SDS011;20549;50.042;8.968;2022-07-29T02:28:36;2.35;;;1.32;;
30998;SDS011;20549;50.042;8.968;2022-07-29T02:31:02;2.50;;;1.57;;
30998;SDS011;20549;50.042;8.968;2022-07-29T02:33:29;4.92;;;1.98;;
30998;SDS011;20549;50.042;8.968;2022-07-29T02:35:56;1.30;;;1.20;;
30998;SDS011;20549;50.042;8.968;2022-07-29T02:38:22;2.02;;;1.55;;
30998;SDS011;20549;50.042;8.968;2022-07-29T02:41:11;1.50;;;1.40;;
30998;SDS011;20549;50.042;8.968;2022-07-29T02:43:34;2.15;;;1.45;;
30998;SDS011;20549;50.042;8.968;2022-07-29T02:46:00;2.90;;;1.55;;
30998;SDS011;20549;50.042;8.968;2022-07-29T02:48:27;1.80;;;1.42;;
30998;SDS011;20549;50.042;8.968;2022-07-29T02:50:55;2.47;;;1.25;;
30998;SDS011;20549;50.042;8.968;2022-07-29T02:53:22;2.65;;;1.40;;
30998;SDS011;20549;50.042;8.968;2022-07-29T02:55:56;3.58;;;1.45;;
30998;SDS011;20549;50.042;8.968;2022-07-29T02:58:15;1.30;;;1.20;;
30998;SDS011;20549;50.042;8.968;2022-07-29T03:00:40;2.50;;;1.40;;
30998;SDS011;20549;50.042;8.968;2022-07-29T03:03:07;2.47;;;1.40;;
30998;SDS011;20549;50.042;8.968;2022-07-29T03:05:33;2.45;;;1.40;;
30998;SDS011;20549;50.042;8.968;2022-07-29T03:08:03;4.42;;;1.62;;
30998;SDS011;20549;50.042;8.968;2022-07-29T03:10:26;3.55;;;1.75;;
30998;SDS011;20549;50.042;8.968;2022-07-29T03:12:54;1.40;;;1.30;;
30998;SDS011;20549;50.042;8.968;2022-07-29T03:15:19;2.67;;;1.82;;
30998;SDS011;20549;50.042;8.968;2022-07-29T03:17:46;11.70;;;1.50;;
30998;SDS011;20549;50.042;8.968;2022-07-29T03:20:12;1.67;;;1.50;;
30998;SDS011;20549;50.042;8.968;2022-07-29T03:22:40;2.47;;;1.40;;
30998;SDS011;20549;50.042;8.968;2022-07-29T03:25:15;2.58;;;1.30;;
30998;SDS011;20549;50.042;8.968;2022-07-29T03:27:41;1.60;;;1.50;;
30998;SDS011;20549;50.042;8.968;2022-07-29T03:30:08;2.25;;;1.32;;
30998;SDS011;20549;50.042;8.968;2022-07-29T03:32:35;1.42;;;1.30;;
30998;SDS011;20549;50.042;8.968;2022-07-29T03:35:01;2.47;;;1.60;;
30998;SDS011;20549;50.042;8.968;2022-07-29T03:37:28;1.67;;;1.57;;
30998;SDS011;20549;50.042;8.968;2022-07-29T03:39:54;1.90;;;1.70;;
30998;SDS011;20549;50.042;8.968;2022-07-29T03:42:22;2.67;;;2.00;;
30998;SDS011;20549;50.042;8.968;2022-07-29T03:44:48;1.62;;;1.52;;
30998;SDS011;20549;50.042;8.968;2022-07-29T03:47:14;2.05;;;1.60;;
30998;SDS011;20549;50.042;8.968;2022-07-29T03:49:41;3.25;;;2.00;;
30998;SDS011;20549;50.042;8.968;2022-07-29T03:52:07;3.90;;;1.77;;
30998;SDS011;20549;50.042;8.968;2022-07-29T03:54:34;1.80;;;1.60;;
30998;SDS011;20549;50.042;8.968;2022-07-29T03:57:01;2.62;;;1.65;;
30998;SDS011;20549;50.042;8.968;2022-07-29T03:59:27;2.58;;;1.95;;
30998;SDS011;20549;50.042;8.968;2022-07-29T04:01:55;2.50;;;1.72;;
30998;SDS011;20549;50.042;8.968;2022-07-29T04:04:21;3.95;;;1.98;;
30998;SDS011;20549;50.042;8.968;2022-07-29T04:06:47;3.17;;;1.75;;
30998;SDS011;20549;50.042;8.968;2022-07-29T04:09:14;1.82;;;1.60;;
30998;SDS011;20549;50.042;8.968;2022-07-29T04:11:40;3.33;;;1.70;;
30998;SDS011;20549;50.042;8.968;2022-07-29T04:14:07;2.92;;;2.15;;
30998;SDS011;20549;50.042;8.968;2022-07-29T04:16:33;2.67;;;1.67;;
30998;SDS011;20549;50.042;8.968;2022-07-29T04:19:00;2.33;;;1.60;;
30998;SDS011;20549;50.042;8.968;2022-07-29T04:21:26;5.33;;;1.57;;
30998;SDS011;20549;50.042;8.968;2022-07-29T04:23:53;2.30;;;1.50;;
30998;SDS011;20549;50.042;8.968;2022-07-29T04:26:20;4.60;;;1.70;;
30998;SDS011;20549;50.042;8.968;2022-07-29T04:28:46;4.87;;;1.60;;
30998;SDS011;20549;50.042;8.968;2022-07-29T04:31:13;1.85;;;1.47;;
30998;SDS011;20549;50.042;8.968;2022-07-29T04:33:39;2.55;;;1.47;;
30998;SDS011;20549;50.042;8.968;2022-07-29T04:36:06;1.57;;;1.32;;
30998;SDS011;20549;50.042;8.968;2022-07-29T04:38:32;3.55;;;1.42;;
30998;SDS011;20549;50.042;8.968;2022-07-29T04:40:59;1.77;;;1.42;;
30998;SDS011;20549;50.042;8.968;2022-07-29T04:43:26;1.42;;;1.32;;
30998;SDS011;20549;50.042;8.968;2022-07-29T04:45:52;3.25;;;1.77;;
30998;SDS011;20549;50.042;8.968;2022-07-29T04:48:19;3.37;;;2.08;;
30998;SDS011;20549;50.042;8.968;2022-07-29T04:50:45;1.82;;;1.55;;
30998;SDS011;20549;50.042;8.968;2022-07-29T04:53:12;2.10;;;1.65;;
30998;SDS011;20549;50.042;8.968;2022-07-29T04:55:39;2.15;;;1.80;;
30998;SDS011;20549;50.042;8.968;2022-07-29T04:58:05;4.60;;;1.50;;
30998;SDS011;20549;50.042;8.968;2022-07-29T05:00:32;2.25;;;1.65;;
30998;SDS011;20549;50.042;8.968;2022-07-29T05:02:58;2.40;;;1.60;;
30998;SDS011;20549;50.042;8.968;2022-07-29T05:05:25;2.50;;;1.60;;
30998;SDS011;20549;50.042;8.968;2022-07-29T05:07:52;2.27;;;1.70;;
30998;SDS011;20549;50.042;8.968;2022-07-29T05:10:18;1.65;;;1.52;;
30998;SDS011;20549;50.042;8.968;2022-07-29T05:12:45;3.22;;;1.75;;
30998;SDS011;20549;50.042;8.968;2022-07-29T05:15:11;4.10;;;1.70;;
30998;SDS011;20549;50.042;8.968;2022-07-29T05:17:38;1.60;;;1.50;;
30998;SDS011;20549;50.042;8.968;2022-07-29T05:20:05;2.17;;;1.50;;
30998;SDS011;20549;50.042;8.968;2022-07-29T05:22:31;3.65;;;1.60;;
30998;SDS011;20549;50.042;8.968;2022-07-29T05:24:58;2.45;;;1.75;;
30998;SDS011;20549;50.042;8.968;2022-07-29T05:27:24;1.98;;;1.77;;
30998;SDS011;20549;50.042;8.968;2022-07-29T05:29:51;1.85;;;1.70;;
30998;SDS011;20549;50.042;8.968;2022-07-29T05:32:18;1.90;;;1.70;;
30998;SDS011;20549;50.042;8.968;2022-07-29T05:34:44;2.42;;;1.80;;
30998;SDS011;20549;50.042;8.968;2022-07-29T05:37:11;3.75;;;1.82;;
30998;SDS011;20549;50.042;8.968;2022-07-29T05:39:37;2.77;;;1.60;;
30998;SDS011;20549;50.042;8.968;2022-07-29T05:42:07;2.33;;;1.80;;
30998;SDS011;20549;50.042;8.968;2022-07-29T05:44:30;1.27;;;1.17;;
30998;SDS011;20549;50.042;8.968;2022-07-29T05:46:57;5.17;;;2.05;;
30998;SDS011;20549;50.042;8.968;2022-07-29T05:49:24;5.08;;;2.10;;
30998;SDS011;20549;50.042;8.968;2022-07-29T05:51:50;4.05;;;1.85;;
30998;SDS011;20549;50.042;8.968;2022-07-29T05:54:17;3.10;;;1.60;;
30998;SDS011;20549;50.042;8.968;2022-07-29T05:56:43;2.35;;;1.67;;
30998;SDS011;20549;50.042;8.968;2022-07-29T05:59:10;2.92;;;1.67;;
30998;SDS011;20549;50.042;8.968;2022-07-29T06:01:37;2.27;;;1.60;;
30998;SDS011;20549;50.042;8.968;2022-07-29T06:04:03;3.08;;;1.85;;
30998;SDS011;20549;50.042;8.968;2022-07-29T06:06:30;3.83;;;1.67;;
30998;SDS011;20549;50.042;8.968;2022-07-29T06:08:56;2.98;;;1.57;;
30998;SDS011;20549;50.042;8.968;2022-07-29T06:11:23;2.60;;;2.00;;
30998;SDS011;20549;50.042;8.968;2022-07-29T06:13:50;3.00;;;2.20;;
30998;SDS011;20549;50.042;8.968;2022-07-29T06:16:16;2.30;;;1.95;;
30998;SDS011;20549;50.042;8.968;2022-07-29T06:18:43;2.22;;;1.80;;
30998;SDS011;20549;50.042;8.968;2022-07-29T06:21:09;1.82;;;1.57;;
30998;SDS011;20549;50.042;8.968;2022-07-29T06:23:36;2.15;;;2.00;;
30998;SDS011;20549;50.042;8.968;2022-07-29T06:26:03;2.87;;;2.05;;
30998;SDS011;20549;50.042;8.968;2022-07-29T06:28:29;2.37;;;2.17;;
30998;SDS011;20549;50.042;8.968;2022-07-29T06:30:56;3.70;;;3.40;;
30998;SDS011;20549;50.042;8.968;2022-07-29T06:33:22;4.30;;;3.90;;
30998;SDS011;20549;50.042;8.968;2022-07-29T06:35:49;5.75;;;3.00;;
30998;SDS011;20549;50.042;8.968;2022-07-29T06:38:16;3.77;;;2.60;;
30998;SDS011;20549;50.042;8.968;2022-07-29T06:40:42;3.62;;;2.15;;
30998;SDS011;20549;50.042;8.968;2022-07-29T06:43:15;2.67;;;2.12;;
30998;SDS011;20549;50.042;8.968;2022-07-29T06:45:41;5.50;;;2.80;;
30998;SDS011;20549;50.042;8.968;2022-07-29T06:48:08;3.47;;;3.17;;
30998;SDS011;20549;50.042;8.968;2022-07-29T06:50:35;4.67;;;2.98;;
30998;SDS011;20549;50.042;8.968;2022-07-29T06:53:01;3.52;;;2.50;;
30998;SDS011;20549;50.042;8.968;2022-07-29T06:55:28;3.85;;;2.12;;
30998;SDS011;20549;50.042;8.968;2022-07-29T06:57:54;2.52;;;1.70;;
30998;SDS011;20549;50.042;8.968;2022-07-29T07:00:21;1.87;;;1.45;;
30998;SDS011;20549;50.042;8.968;2022-07-29T07:02:47;1.70;;;1.42;;
30998;SDS011;20549;50.042;8.968;2022-07-29T07:05:14;5.78;;;1.72;;
30998;SDS011;20549;50.042;8.968;2022-07-29T07:07:41;2.55;;;1.77;;
30998;SDS011;20549;50.042;8.968;2022-07-29T07:10:07;2.70;;;1.62;;
30998;SDS011;20549;50.042;8.968;2022-07-29T07:12:34;1.98;;;1.77;;
30998;SDS011;20549;50.042;8.968;2022-07-29T07:15:00;3.10;;;1.90;;
30998;SDS011;20549;50.042;8.968;2022-07-29T07:17:27;5.95;;;1.87;;
30998;SDS011;20549;50.042;8.968;2022-07-29T07:19:54;1.70;;;1.60;;
30998;SDS011;20549;50.042;8.968;2022-07-29T07:22:20;3.10;;;1.60;;
30998;SDS011;20549;50.042;8.968;2022-07-29T07:24:47;2.52;;;1.50;;
30998;SDS011;20549;50.042;8.968;2022-07-29T07:27:13;1.82;;;1.40;;
30998;SDS011;20549;50.042;8.968;2022-07-29T07:29:40;1.85;;;1.55;;
30998;SDS011;20549;50.042;8.968;2022-07-29T07:32:07;1.85;;;1.60;;
30998;SDS011;20549;50.042;8.968;2022-07-29T07:34:33;2.02;;;1.82;;
30998;SDS011;20549;50.042;8.968;2022-07-29T07:37:00;1.98;;;1.60;;
30998;SDS011;20549;50.042;8.968;2022-07-29T07:39:26;1.50;;;1.37;;
30998;SDS011;20549;50.042;8.968;2022-07-29T07:41:53;4.03;;;1.37;;
30998;SDS011;20549;50.042;8.968;2022-07-29T07:44:19;2.42;;;1.55;;
30998;SDS011;20549;50.042;8.968;2022-07-29T07:46:46;2.02;;;1.55;;
30998;SDS011;20549;50.042;8.968;2022-07-29T07:49:13;3.92;;;1.70;;
30998;SDS011;20549;50.042;8.968;2022-07-29T07:51:39;1.67;;;1.57;;
30998;SDS011;20549;50.042;8.968;2022-07-29T07:54:06;3.10;;;1.37;;
30998;SDS011;20549;50.042;8.968;2022-07-29T07:56:32;2.20;;;1.50;;
30998;SDS011;20549;50.042;8.968;2022-07-29T07:58:59;1.75;;;1.65;;
30998;SDS011;20549;50.042;8.968;2022-07-29T08:01:26;2.35;;;1.52;;
30998;SDS011;20549;50.042;8.968;2022-07-29T08:03:52;1.65;;;1.50;;
30998;SDS011;20549;50.042;8.968;2022-07-29T08:06:19;1.67;;;1.57;;
30998;SDS011;20549;50.042;8.968;2022-07-29T08:08:45;2.85;;;1.40;;
30998;SDS011;20549;50.042;8.968;2022-07-29T08:11:12;3.12;;;1.52;;
30998;SDS011;20549;50.042;8.968;2022-07-29T08:13:39;1.87;;;1.70;;
30998;SDS011;20549;50.042;8.968;2022-07-29T08:16:06;2.35;;;1.67;;
30998;SDS011;20549;50.042;8.968;2022-07-29T08:18:38;1.47;;;1.37;;
30998;SDS011;20549;50.042;8.968;2022-07-29T08:21:04;1.85;;;1.32;;
30998;SDS011;20549;50.042;8.968;2022-07-29T08:23:30;1.62;;;1.47;;
30998;SDS011;20549;50.042;8.968;2022-07-29T08:25:57;1.80;;;1.30;;
30998;SDS011;20549;50.042;8.968;2022-07-29T08:28:24;2.72;;;1.45;;
30998;SDS011;20549;50.042;8.968;2022-07-29T08:30:50;1.40;;;1.30;;
30998;SDS011;20549;50.042;8.968;2022-07-29T08:33:17;2.45;;;1.37;;
30998;SDS011;20549;50.042;8.968;2022-07-29T08:35:43;1.75;;;1.55;;
30998;SDS011;20549;50.042;8.968;2022-07-29T08:38:10;4.60;;;1.77;;
30998;SDS011;20549;50.042;8.968;2022-07-29T08:40:36;1.52;;;1.25;;
30998;SDS011;20549;50.042;8.968;2022-07-29T08:43:07;1.40;;;1.30;;
30998;SDS011;20549;50.042;8.968;2022-07-29T08:45:43;2.30;;;1.75;;
30998;SDS011;20549;50.042;8.968;2022-07-29T08:48:08;3.87;;;1.52;;
30998;SDS011;20549;50.042;8.968;2022-07-29T08:50:35;2.60;;;1.70;;
30998;SDS011;20549;50.042;8.968;2022-07-29T08:53:01;2.00;;;1.57;;
30998;SDS011;20549;50.042;8.968;2022-07-29T08:55:28;2.15;;;1.37;;
30998;SDS011;20549;50.042;8.968;2022-07-29T08:57:55;2.87;;;1.47;;
30998;SDS011;20549;50.042;8.968;2022-07-29T09:00:21;1.62;;;1.30;;
30998;SDS011;20549;50.042;8.968;2022-07-29T09:02:48;3.50;;;1.37;;
30998;SDS011;20549;50.042;8.968;2022-07-29T09:05:14;1.07;;;1.00;;
30998;SDS011;20549;50.042;8.968;2022-07-29T09:07:41;3.75;;;1.42;;
30998;SDS011;20549;50.042;8.968;2022-07-29T09:10:07;1.62;;;1.52;;
30998;SDS011;20549;50.042;8.968;2022-07-29T09:12:34;1.67;;;1.50;;
30998;SDS011;20549;50.042;8.968;2022-07-29T09:15:01;2.42;;;1.50;;
30998;SDS011;20549;50.042;8.968;2022-07-29T09:17:44;2.30;;;1.50;;
30998;SDS011;20549;50.042;8.968;2022-07-29T09:20:10;1.50;;;1.40;;
30998;SDS011;20549;50.042;8.968;2022-07-29T09:22:41;2.77;;;1.60;;
30998;SDS011;20549;50.042;8.968;2022-07-29T09:25:08;3.72;;;1.70;;
30998;SDS011;20549;50.042;8.968;2022-07-29T09:27:34;2.27;;;1.50;;
30998;SDS011;20549;50.042;8.968;2022-07-29T09:30:08;3.55;;;1.52;;
30998;SDS011;20549;50.042;8.968;2022-07-29T09:32:33;3.72;;;1.85;;
30998;SDS011;20549;50.042;8.968;2022-07-29T09:35:19;2.37;;;1.62;;
30998;SDS011;20549;50.042;8.968;2022-07-29T09:37:48;1.57;;;1.47;;
30998;SDS011;20549;50.042;8.968;2022-07-29T09:40:15;1.82;;;1.45;;
30998;SDS011;20549;50.042;8.968;2022-07-29T09:42:41;1.67;;;1.55;;
30998;SDS011;20549;50.042;8.968;2022-07-29T09:45:07;1.60;;;1.50;;
30998;SDS011;20549;50.042;8.968;2022-07-29T09:47:41;2.00;;;1.80;;
30998;SDS011;20549;50.042;8.968;2022-07-29T09:50:06;2.30;;;1.60;;
30998;SDS011;20549;50.042;8.968;2022-07-29T09:52:41;2.25;;;1.70;;
30998;SDS011;20549;50.042;8.968;2022-07-29T09:55:06;2.25;;;1.90;;
30998;SDS011;20549;50.042;8.968;2022-07-29T09:57:32;3.42;;;1.67;;
30998;SDS011;20549;50.042;8.968;2022-07-29T10:00:04;1.62;;;1.52;;
30998;SDS011;20549;50.042;8.968;2022-07-29T10:02:29;5.35;;;1.55;;
30998;SDS011;20549;50.042;8.968;2022-07-29T10:04:55;1.92;;;1.52;;
30998;SDS011;20549;50.042;8.968;2022-07-29T10:07:21;2.30;;;1.67;;
30998;SDS011;20549;50.042;8.968;2022-07-29T10:09:55;1.70;;;1.60;;
30998;SDS011;20549;50.042;8.968;2022-07-29T10:12:21;1.50;;;1.30;;
30998;SDS011;20549;50.042;8.968;2022-07-29T10:14:47;2.58;;;1.75;;
30998;SDS011;20549;50.042;8.968;2022-07-29T10:17:14;1.95;;;1.60;;
30998;SDS011;20549;50.042;8.968;2022-07-29T10:19:40;1.80;;;1.70;;
30998;SDS011;20549;50.042;8.968;2022-07-29T10:22:08;1.77;;;1.67;;
30998;SDS011;20549;50.042;8.968;2022-07-29T10:24:34;3.52;;;1.70;;
30998;SDS011;20549;50.042;8.968;2022-07-29T10:27:00;1.70;;;1.40;;
30998;SDS011;20549;50.042;8.968;2022-07-29T10:29:27;1.40;;;1.30;;
30998;SDS011;20549;50.042;8.968;2022-07-29T10:31:57;1.37;;;1.35;;
30998;SDS011;20549;50.042;8.968;2022-07-29T10:37:12;1.77;;;1.60;;
30998;SDS011;20549;50.042;8.968;2022-07-29T10:42:18;1.42;;;1.32;;
30998;SDS011;20549;50.042;8.968;2022-07-29T10:44:47;1.80;;;1.50;;
30998;SDS011;20549;50.042;8.968;2022-07-29T10:47:24;2.20;;;1.30;;
30998;SDS011;20549;50.042;8.968;2022-07-29T10:49:59;1.50;;;1.40;;
30998;SDS011;20549;50.042;8.968;2022-07-29T10:52:51;18.35;;;3.33;;
30998;SDS011;20549;50.042;8.968;2022-07-29T10:54:52;3.22;;;1.85;;
30998;SDS011;20549;50.042;8.968;2022-07-29T10:57:20;3.25;;;1.90;;
30998;SDS011;20549;50.042;8.968;2022-07-29T11:05:05;2.02;;;1.70;;
30998;SDS011;20549;50.042;8.968;2022-07-29T11:07:32;1.70;;;1.35;;
30998;SDS011;20549;50.042;8.968;2022-07-29T11:10:32;1.77;;;1.55;;
30998;SDS011;20549;50.042;8.968;2022-07-29T11:15:12;1.60;;;1.50;;
30998;SDS011;20549;50.042;8.968;2022-07-29T11:23:25;2.20;;;1.50;;
30998;SDS011;20549;50.042;8.968;2022-07-29T11:29:24;2.02;;;1.72;;
30998;SDS011;20549;50.042;8.968;2022-07-29T11:31:04;2.75;;;1.62;;
30998;SDS011;20549;50.042;8.968;2022-07-29T11:33:31;4.08;;;1.90;;
30998;SDS011;20549;50.042;8.968;2022-07-29T11:36:08;2.60;;;2.00;;
30998;SDS011;20549;50.042;8.968;2022-07-29T11:38:36;1.95;;;1.67;;
30998;SDS011;20549;50.042;8.968;2022-07-29T11:41:21;1.98;;;1.70;;
30998;SDS011;20549;50.042;8.968;2022-07-29T11:43:47;1.92;;;1.77;;
30998;SDS011;20549;50.042;8.968;2022-07-29T11:49:11;3.42;;;2.02;;
30998;SDS011;20549;50.042;8.968;2022-07-29T11:51:38;2.67;;;1.57;;
30998;SDS011;20549;50.042;8.968;2022-07-29T11:54:04;3.40;;;1.72;;
30998;SDS011;20549;50.042;8.968;2022-07-29T11:56:31;1.30;;;1.27;;
30998;SDS011;20549;50.042;8.968;2022-07-29T11:59:04;2.20;;;1.70;;
30998;SDS011;20549;50.042;8.968;2022-07-29T12:01:30;2.22;;;2.00;;
30998;SDS011;20549;50.042;8.968;2022-07-29T12:04:06;2.10;;;1.90;;
30998;SDS011;20549;50.042;8.968;2022-07-29T12:06:35;3.52;;;1.98;;
30998;SDS011;20549;50.042;8.968;2022-07-29T12:08:59;4.37;;;1.77;;
30998;SDS011;20549;50.042;8.968;2022-07-29T12:11:25;2.25;;;2.15;;
30998;SDS011;20549;50.042;8.968;2022-07-29T12:13:52;2.20;;;1.85;;
30998;SDS011;20549;50.042;8.968;2022-07-29T12:16:19;1.98;;;1.75;;
30998;SDS011;20549;50.042;8.968;2022-07-29T12:18:55;2.45;;;1.90;;
30998;SDS011;20549;50.042;8.968;2022-07-29T12:21:21;2.40;;;2.20;;
30998;SDS011;20549;50.042;8.968;2022-07-29T12:23:53;1.98;;;1.57;;
30998;SDS011;20549;50.042;8.968;2022-07-29T12:26:20;2.27;;;1.65;;
30998;SDS011;20549;50.042;8.968;2022-07-29T12:28:46;3.15;;;1.90;;
30998;SDS011;20549;50.042;8.968;2022-07-29T12:31:13;2.10;;;1.90;;
30998;SDS011;20549;50.042;8.968;2022-07-29T12:33:39;2.00;;;1.80;;
30998;SDS011;20549;50.042;8.968;2022-07-29T12:36:06;2.15;;;1.98;;
30998;SDS011;20549;50.042;8.968;2022-07-29T12:38:35;2.17;;;1.90;;
30998;SDS011;20549;50.042;8.968;2022-07-29T12:41:02;4.47;;;1.85;;
30998;SDS011;20549;50.042;8.968;2022-07-29T12:43:29;2.10;;;1.90;;
30998;SDS011;20549;50.042;8.968;2022-07-29T12:45:56;1.72;;;1.60;;
30998;SDS011;20549;50.042;8.968;2022-07-29T12:48:34;2.50;;;2.17;;
30998;SDS011;20549;50.042;8.968;2022-07-29T12:51:01;2.20;;;2.00;;
30998;SDS011;20549;50.042;8.968;2022-07-29T12:53:27;2.33;;;1.72;;
30998;SDS011;20549;50.042;8.968;2022-07-29T12:55:55;2.37;;;2.00;;
30998;SDS011;20549;50.042;8.968;2022-07-29T12:58:42;2.17;;;1.80;;
30998;SDS011;20549;50.042;8.968;2022-07-29T13:01:05;2.40;;;2.20;;
30998;SDS011;20549;50.042;8.968;2022-07-29T13:09:12;1.87;;;1.77;;
30998;SDS011;20549;50.042;8.968;2022-07-29T13:11:38;2.15;;;1.92;;
30998;SDS011;20549;50.042;8.968;2022-07-29T13:14:04;2.08;;;1.82;;
30998;SDS011;20549;50.042;8.968;2022-07-29T13:16:30;2.35;;;2.00;;
30998;SDS011;20549;50.042;8.968;2022-07-29T13:19:07;2.62;;;2.00;;
30998;SDS011;20549;50.042;8.968;2022-07-29T13:21:33;1.77;;;1.67;;
30998;SDS011;20549;50.042;8.968;2022-07-29T13:23:59;2.30;;;2.00;;
30998;SDS011;20549;50.042;8.968;2022-07-29T13:26:26;1.95;;;1.85;;
30998;SDS011;20549;50.042;8.968;2022-07-29T13:28:52;2.00;;;1.75;;
30998;SDS011;20549;50.042;8.968;2022-07-29T13:31:19;3.00;;;1.82;;
30998;SDS011;20549;50.042;8.968;2022-07-29T13:33:45;1.90;;;1.80;;
30998;SDS011;20549;50.042;8.968;2022-07-29T13:36:12;1.95;;;1.82;;
30998;SDS011;20549;50.042;8.968;2022-07-29T13:38:39;3.60;;;1.80;;
30998;SDS011;20549;50.042;8.968;2022-07-29T13:41:05;1.70;;;1.60;;
30998;SDS011;20549;50.042;8.968;2022-07-29T13:43:32;1.95;;;1.80;;
30998;SDS011;20549;50.042;8.968;2022-07-29T13:45:58;2.72;;;2.05;;
30998;SDS011;20549;50.042;8.968;2022-07-29T13:48:25;1.95;;;1.85;;
30998;SDS011;20549;50.042;8.968;2022-07-29T13:50:52;3.12;;;1.77;;
30998;SDS011;20549;50.042;8.968;2022-07-29T13:53:18;3.15;;;1.90;;
30998;SDS011;20549;50.042;8.968;2022-07-29T13:55:45;3.42;;;1.90;;
30998;SDS011;20549;50.042;8.968;2022-07-29T13:58:11;5.03;;;2.27;;
30998;SDS011;20549;50.042;8.968;2022-07-29T14:00:38;3.65;;;2.08;;
30998;SDS011;20549;50.042;8.968;2022-07-29T14:03:05;3.27;;;2.60;;
30998;SDS011;20549;50.042;8.968;2022-07-29T14:05:31;4.30;;;2.60;;
30998;SDS011;20549;50.042;8.968;2022-07-29T14:07:58;3.25;;;2.27;;
30998;SDS011;20549;50.042;8.968;2022-07-29T14:10:24;2.60;;;2.00;;
30998;SDS011;20549;50.042;8.968;2022-07-29T14:12:51;2.45;;;2.25;;
30998;SDS011;20549;50.042;8.968;2022-07-29T14:15:17;2.67;;;2.33;;
30998;SDS011;20549;50.042;8.968;2022-07-29T14:17:44;10.08;;;2.80;;
30998;SDS011;20549;50.042;8.968;2022-07-29T14:20:11;2.47;;;2.27;;
30998;SDS011;20549;50.042;8.968;2022-07-29T14:22:37;2.02;;;1.92;;
30998;SDS011;20549;50.042;8.968;2022-07-29T14:25:04;2.80;;;2.02;;
30998;SDS011;20549;50.042;8.968;2022-07-29T14:27:30;2.70;;;2.00;;
30998;SDS011;20549;50.042;8.968;2022-07-29T14:29:57;2.20;;;2.00;;
30998;SDS011;20549;50.042;8.968;2022-07-29T14:32:24;5.45;;;2.15;;
30998;SDS011;20549;50.042;8.968;2022-07-29T14:34:50;2.20;;;2.00;;
30998;SDS011;20549;50.042;8.968;2022-07-29T14:37:17;3.10;;;2.02;;
30998;SDS011;20549;50.042;8.968;2022-07-29T14:39:43;3.20;;;2.52;;
30998;SDS011;20549;50.042;8.968;2022-07-29T14:42:10;2.47;;;1.95;;
30998;SDS011;20549;50.042;8.968;2022-07-29T14:44:37;5.42;;;1.90;;
30998;SDS011;20549;50.042;8.968;2022-07-29T14:47:03;2.47;;;2.10;;
30998;SDS011;20549;50.042;8.968;2022-07-29T14:49:30;2.17;;;1.98;;
30998;SDS011;20549;50.042;8.968;2022-07-29T14:51:56;2.00;;;1.82;;
30998;SDS011;20549;50.042;8.968;2022-07-29T14:54:23;2.20;;;2.10;;
30998;SDS011;20549;50.042;8.968;2022-07-29T14:56:50;2.75;;;2.55;;
30998;SDS011;20549;50.042;8.968;2022-07-29T14:59:16;3.90;;;2.35;;
30998;SDS011;20549;50.042;8.968;2022-07-29T15:01:43;2.25;;;2.08;;
30998;SDS011;20549;50.042;8.968;2022-07-29T15:04:09;2.90;;;2.20;;
30998;SDS011;20549;50.042;8.968;2022-07-29T15:06:36;2.67;;;2.17;;
30998;SDS011;20549;50.042;8.968;2022-07-29T15:09:03;2.30;;;2.10;;
30998;SDS011;20549;50.042;8.968;2022-07-29T15:11:29;3.17;;;2.10;;
30998;SDS011;20549;50.042;8.968;2022-07-29T15:13:56;2.47;;;2.30;;
30998;SDS011;20549;50.042;8.968;2022-07-29T15:16:22;3.52;;;2.70;;
30998;SDS011;20549;50.042;8.968;2022-07-29T15:18:49;3.45;;;2.45;;
30998;SDS011;20549;50.042;8.968;2022-07-29T15:21:15;3.15;;;2.55;;
30998;SDS011;20549;50.042;8.968;2022-07-29T15:23:42;3.10;;;2.02;;
30998;SDS011;20549;50.042;8.968;2022-07-29T15:26:09;2.45;;;2.25;;